Capitol Logistics 2061

Operating for MET



KMCI
Kansas City International Airport
Kansas City, Missouri
KBOS
Logan International Airport
Boston, Massachusetts

Route Details

Aircraft Information
Group: North America Fleet
Types: B738,B752,B762,B763
Route Data
Demand: V
Distance: 1090nm
Duration: 2h 39m
Recm'd Route: LAKES2 SPI ROD KLYNE Q29 JHW Q82 PONCT JFUND2
Origin Wx: KMCI 270553Z 30006KT 10SM CLR 10/08 A2991 RMK AO2 SLP125 60000 T01000083 10133 20094 402000094 50004
Dest. Wx: KBOS 270554Z 21009KT 10SM OVC035 16/13 A3006 RMK AO2 SLP179 T01610133 10172 20156 56019
Notes: OPF METRO AIR VIRTUAL

Financial History
Total Freight: 444,840lbs
Average Load: 74,140lbs/flt
Fuel Used: 163,552lbs
Avg. Fuel Used: 27,259lbs/flt
Fuel Expense: $179,907
Avg. Fuel Expense: $29,985
Avg. Fuel Cost: $1.10/lbs
Total Gross Income: $618,840
Pilot Pay: $1,234
Total Expenses: $67,147
Total Revenue: $368,031
Average Revenue: $103,140.03